ROMMA est une association bénévole à but non lucratif. Votre soutien est indispensable : ADHERER à ROMMA ou FAIRE un DON

Chélieu - (38, Isère)

Terres Froides (550 m)   Longitude: 5° 28' 48.00" E   Latitude: 45° 31' 02.39"N Station partenaire n°44
 

Détail journalier du     <<     >>

Température Precipitation Humidité Pression Vent Dir Rafale Dir. rafale
Heure (°C) (mm) (%) (hPa) (km/h) (km/h)
01:00 9.808710191OSO6O
02:00 10.108610203O8O
03:00 10.008610203O10NO
04:00 10.108610205NO10NO
05:00 8.408810203NNO10NNO
06:00 8.809110215NNO10NNO
07:00 8.609110216NNO11NO
08:00 8.609110226NNO11NO
09:00 9.609210237NNO13NNO
10:00 11.308910237N15N
11:00 12.3088102410N19NO
12:00 13.4084102412N23N
13:00 14.4081102310NNE18NNE
14:00 14.708010239NNE19NNE
15:00 15.2080102210N19N
16:00 15.2079102211N19NE
17:00 14.608210228NNO18NO
18:00 14.008210228NO15N
19:00 11.408810235NNO10NNO
20:00 11.008910234NO10NO
21:00 9.509010232NO6NO
22:00 9.709010243NO10NO
23:00 8.1090102300
minuit 8.3094102300

Graphique du 25-10-2019

 

Serveur OMMA